sensor_id;sensor_type;location;lat;lon;timestamp;temperature;humidity
19829;DHT22;10075;50.924;4.396;2023-04-15T00:02:16;11.80;99.90
19829;DHT22;10075;50.924;4.396;2023-04-15T00:04:45;11.80;99.90
19829;DHT22;10075;50.924;4.396;2023-04-15T00:07:13;11.80;99.90
19829;DHT22;10075;50.924;4.396;2023-04-15T00:09:41;11.70;99.90
19829;DHT22;10075;50.924;4.396;2023-04-15T00:12:10;11.70;99.90
19829;DHT22;10075;50.924;4.396;2023-04-15T00:14:37;11.70;99.90
19829;DHT22;10075;50.924;4.396;2023-04-15T00:17:04;11.60;99.90
19829;DHT22;10075;50.924;4.396;2023-04-15T00:19:32;11.70;99.90
19829;DHT22;10075;50.924;4.396;2023-04-15T00:22:00;11.70;99.90
19829;DHT22;10075;50.924;4.396;2023-04-15T00:24:27;11.70;99.90
19829;DHT22;10075;50.924;4.396;2023-04-15T00:26:55;11.70;99.90
19829;DHT22;10075;50.924;4.396;2023-04-15T00:29:22;11.60;99.90
19829;DHT22;10075;50.924;4.396;2023-04-15T00:31:49;11.60;99.90
19829;DHT22;10075;50.924;4.396;2023-04-15T00:34:16;11.60;99.90
19829;DHT22;10075;50.924;4.396;2023-04-15T00:36:43;11.50;99.90
19829;DHT22;10075;50.924;4.396;2023-04-15T00:39:12;11.50;99.90
19829;DHT22;10075;50.924;4.396;2023-04-15T00:41:39;11.50;99.90
19829;DHT22;10075;50.924;4.396;2023-04-15T00:44:06;11.50;99.90
19829;DHT22;10075;50.924;4.396;2023-04-15T00:46:35;11.30;99.90
19829;DHT22;10075;50.924;4.396;2023-04-15T00:49:04;11.10;99.90
19829;DHT22;10075;50.924;4.396;2023-04-15T00:51:32;10.80;99.90
19829;DHT22;10075;50.924;4.396;2023-04-15T00:54:01;10.80;99.90
19829;DHT22;10075;50.924;4.396;2023-04-15T00:56:29;10.70;99.90
19829;DHT22;10075;50.924;4.396;2023-04-15T00:58:58;10.60;99.90
19829;DHT22;10075;50.924;4.396;2023-04-15T01:01:26;10.60;99.90
19829;DHT22;10075;50.924;4.396;2023-04-15T01:03:55;10.40;99.90
19829;DHT22;10075;50.924;4.396;2023-04-15T01:06:22;10.20;99.90
19829;DHT22;10075;50.924;4.396;2023-04-15T01:08:49;10.20;99.90
19829;DHT22;10075;50.924;4.396;2023-04-15T01:11:17;10.30;99.90
19829;DHT22;10075;50.924;4.396;2023-04-15T01:13:46;10.40;99.90
19829;DHT22;10075;50.924;4.396;2023-04-15T01:16:13;10.40;99.90
19829;DHT22;10075;50.924;4.396;2023-04-15T01:18:40;10.50;99.90
19829;DHT22;10075;50.924;4.396;2023-04-15T01:21:08;10.60;99.90
19829;DHT22;10075;50.924;4.396;2023-04-15T01:23:36;10.70;99.90
19829;DHT22;10075;50.924;4.396;2023-04-15T01:26:05;10.70;99.90
19829;DHT22;10075;50.924;4.396;2023-04-15T01:28:33;10.70;99.90
19829;DHT22;10075;50.924;4.396;2023-04-15T01:31:07;10.70;99.90
19829;DHT22;10075;50.924;4.396;2023-04-15T01:33:35;10.80;99.90
19829;DHT22;10075;50.924;4.396;2023-04-15T01:36:03;10.80;99.90
19829;DHT22;10075;50.924;4.396;2023-04-15T01:38:31;10.80;99.90
19829;DHT22;10075;50.924;4.396;2023-04-15T01:40:58;10.80;99.90
19829;DHT22;10075;50.924;4.396;2023-04-15T01:43:26;10.80;99.90
19829;DHT22;10075;50.924;4.396;2023-04-15T01:45:53;10.80;99.90
19829;DHT22;10075;50.924;4.396;2023-04-15T01:48:21;10.70;99.90
19829;DHT22;10075;50.924;4.396;2023-04-15T01:50:48;10.80;99.90
19829;DHT22;10075;50.924;4.396;2023-04-15T01:53:16;10.80;99.90
19829;DHT22;10075;50.924;4.396;2023-04-15T01:55:43;10.80;99.90
19829;DHT22;10075;50.924;4.396;2023-04-15T01:58:10;10.70;99.90
19829;DHT22;10075;50.924;4.396;2023-04-15T02:00:38;10.80;99.90
19829;DHT22;10075;50.924;4.396;2023-04-15T02:03:05;10.70;99.90
19829;DHT22;10075;50.924;4.396;2023-04-15T02:05:32;10.60;99.90
19829;DHT22;10075;50.924;4.396;2023-04-15T02:07:59;10.60;99.90
19829;DHT22;10075;50.924;4.396;2023-04-15T02:10:26;10.50;99.90
19829;DHT22;10075;50.924;4.396;2023-04-15T02:12:53;10.40;99.90
19829;DHT22;10075;50.924;4.396;2023-04-15T02:15:21;10.30;99.90
19829;DHT22;10075;50.924;4.396;2023-04-15T02:17:49;10.30;99.90
19829;DHT22;10075;50.924;4.396;2023-04-15T02:20:18;10.30;99.90
19829;DHT22;10075;50.924;4.396;2023-04-15T02:22:47;10.20;99.90
19829;DHT22;10075;50.924;4.396;2023-04-15T02:25:14;10.10;99.90
19829;DHT22;10075;50.924;4.396;2023-04-15T02:27:42;10.00;99.90
19829;DHT22;10075;50.924;4.396;2023-04-15T02:30:10;9.90;99.90
19829;DHT22;10075;50.924;4.396;2023-04-15T02:32:37;9.90;99.90
19829;DHT22;10075;50.924;4.396;2023-04-15T02:35:07;9.90;99.90
19829;DHT22;10075;50.924;4.396;2023-04-15T02:37:35;9.90;99.90
19829;DHT22;10075;50.924;4.396;2023-04-15T02:40:07;9.90;99.90
19829;DHT22;10075;50.924;4.396;2023-04-15T02:42:36;9.90;99.90
19829;DHT22;10075;50.924;4.396;2023-04-15T02:47:31;9.90;99.90
19829;DHT22;10075;50.924;4.396;2023-04-15T02:49:58;9.80;99.90
19829;DHT22;10075;50.924;4.396;2023-04-15T02:52:28;9.80;99.90
19829;DHT22;10075;50.924;4.396;2023-04-15T02:54:55;9.80;99.90
19829;DHT22;10075;50.924;4.396;2023-04-15T02:57:25;9.80;99.90
19829;DHT22;10075;50.924;4.396;2023-04-15T02:59:53;9.80;99.90
19829;DHT22;10075;50.924;4.396;2023-04-15T03:02:20;9.80;99.90
19829;DHT22;10075;50.924;4.396;2023-04-15T03:04:47;10.00;99.90
19829;DHT22;10075;50.924;4.396;2023-04-15T03:07:14;10.20;99.90
19829;DHT22;10075;50.924;4.396;2023-04-15T03:09:42;10.30;99.90
19829;DHT22;10075;50.924;4.396;2023-04-15T03:12:09;10.40;99.90
19829;DHT22;10075;50.924;4.396;2023-04-15T03:14:36;10.50;99.90
19829;DHT22;10075;50.924;4.396;2023-04-15T03:17:03;10.50;99.90
19829;DHT22;10075;50.924;4.396;2023-04-15T03:19:30;10.40;99.90
19829;DHT22;10075;50.924;4.396;2023-04-15T03:21:57;10.40;99.90
19829;DHT22;10075;50.924;4.396;2023-04-15T03:24:25;10.40;99.90
19829;DHT22;10075;50.924;4.396;2023-04-15T03:26:55;10.50;99.90
19829;DHT22;10075;50.924;4.396;2023-04-15T03:29:22;10.30;99.90
19829;DHT22;10075;50.924;4.396;2023-04-15T03:31:50;10.00;99.90
19829;DHT22;10075;50.924;4.396;2023-04-15T03:34:17;9.90;99.90
19829;DHT22;10075;50.924;4.396;2023-04-15T03:36:45;10.00;99.90
19829;DHT22;10075;50.924;4.396;2023-04-15T03:39:12;10.00;99.90
19829;DHT22;10075;50.924;4.396;2023-04-15T03:41:39;10.10;99.90
19829;DHT22;10075;50.924;4.396;2023-04-15T03:44:07;10.20;99.90
19829;DHT22;10075;50.924;4.396;2023-04-15T03:46:36;10.20;99.90
19829;DHT22;10075;50.924;4.396;2023-04-15T03:49:06;10.20;99.90
19829;DHT22;10075;50.924;4.396;2023-04-15T03:51:33;10.00;99.90
19829;DHT22;10075;50.924;4.396;2023-04-15T03:54:00;9.90;99.90
19829;DHT22;10075;50.924;4.396;2023-04-15T03:56:27;9.80;99.90
19829;DHT22;10075;50.924;4.396;2023-04-15T03:58:55;9.80;99.90
19829;DHT22;10075;50.924;4.396;2023-04-15T04:01:23;9.70;99.90
19829;DHT22;10075;50.924;4.396;2023-04-15T04:03:50;9.70;99.90
19829;DHT22;10075;50.924;4.396;2023-04-15T04:06:17;9.60;99.90
19829;DHT22;10075;50.924;4.396;2023-04-15T04:08:44;9.60;99.90
19829;DHT22;10075;50.924;4.396;2023-04-15T04:11:11;9.60;99.90
19829;DHT22;10075;50.924;4.396;2023-04-15T04:13:38;9.50;99.90
19829;DHT22;10075;50.924;4.396;2023-04-15T04:16:06;9.50;99.90
19829;DHT22;10075;50.924;4.396;2023-04-15T04:18:34;9.40;99.90
19829;DHT22;10075;50.924;4.396;2023-04-15T04:21:01;9.30;99.90
19829;DHT22;10075;50.924;4.396;2023-04-15T04:23:28;9.30;99.90
19829;DHT22;10075;50.924;4.396;2023-04-15T04:25:55;9.40;99.90
19829;DHT22;10075;50.924;4.396;2023-04-15T04:28:22;9.50;99.90
19829;DHT22;10075;50.924;4.396;2023-04-15T04:30:49;9.50;99.90
19829;DHT22;10075;50.924;4.396;2023-04-15T04:33:16;9.60;99.90
19829;DHT22;10075;50.924;4.396;2023-04-15T04:35:45;9.70;99.90
19829;DHT22;10075;50.924;4.396;2023-04-15T04:38:12;9.70;99.90
19829;DHT22;10075;50.924;4.396;2023-04-15T04:40:39;9.70;99.90
19829;DHT22;10075;50.924;4.396;2023-04-15T04:43:06;9.80;99.90
19829;DHT22;10075;50.924;4.396;2023-04-15T04:45:33;9.80;99.90
19829;DHT22;10075;50.924;4.396;2023-04-15T04:48:00;9.90;99.90
19829;DHT22;10075;50.924;4.396;2023-04-15T04:50:31;9.90;99.90
19829;DHT22;10075;50.924;4.396;2023-04-15T04:53:00;9.80;99.90
19829;DHT22;10075;50.924;4.396;2023-04-15T04:55:27;9.80;99.90
19829;DHT22;10075;50.924;4.396;2023-04-15T04:57:54;9.80;99.90
19829;DHT22;10075;50.924;4.396;2023-04-15T05:00:21;9.80;99.90
19829;DHT22;10075;50.924;4.396;2023-04-15T05:02:49;9.80;99.90
19829;DHT22;10075;50.924;4.396;2023-04-15T05:05:16;9.80;99.90
19829;DHT22;10075;50.924;4.396;2023-04-15T05:07:43;9.60;99.90
19829;DHT22;10075;50.924;4.396;2023-04-15T05:10:11;9.50;99.90
19829;DHT22;10075;50.924;4.396;2023-04-15T05:12:39;9.30;99.90
19829;DHT22;10075;50.924;4.396;2023-04-15T05:15:07;9.40;99.90
19829;DHT22;10075;50.924;4.396;2023-04-15T05:17:35;9.60;99.90
19829;DHT22;10075;50.924;4.396;2023-04-15T05:20:02;9.70;99.90
19829;DHT22;10075;50.924;4.396;2023-04-15T05:22:29;9.70;99.90
19829;DHT22;10075;50.924;4.396;2023-04-15T05:24:56;9.60;99.90
19829;DHT22;10075;50.924;4.396;2023-04-15T05:27:24;9.50;99.90
19829;DHT22;10075;50.924;4.396;2023-04-15T05:29:51;9.60;99.90
19829;DHT22;10075;50.924;4.396;2023-04-15T05:32:18;9.70;99.90
19829;DHT22;10075;50.924;4.396;2023-04-15T05:34:45;9.90;99.90
19829;DHT22;10075;50.924;4.396;2023-04-15T05:37:12;10.00;99.90
19829;DHT22;10075;50.924;4.396;2023-04-15T05:39:39;10.00;99.90
19829;DHT22;10075;50.924;4.396;2023-04-15T05:42:17;9.90;99.90
19829;DHT22;10075;50.924;4.396;2023-04-15T05:44:57;9.90;99.90
19829;DHT22;10075;50.924;4.396;2023-04-15T05:47:25;9.90;99.90
19829;DHT22;10075;50.924;4.396;2023-04-15T05:49:52;9.90;99.90
19829;DHT22;10075;50.924;4.396;2023-04-15T05:52:20;10.00;99.90
19829;DHT22;10075;50.924;4.396;2023-04-15T05:54:47;10.10;99.90
19829;DHT22;10075;50.924;4.396;2023-04-15T05:57:13;10.10;99.90
19829;DHT22;10075;50.924;4.396;2023-04-15T05:59:40;9.90;99.90
19829;DHT22;10075;50.924;4.396;2023-04-15T06:02:09;9.80;99.90
19829;DHT22;10075;50.924;4.396;2023-04-15T06:04:36;9.90;99.90
19829;DHT22;10075;50.924;4.396;2023-04-15T06:07:03;9.90;99.90
19829;DHT22;10075;50.924;4.396;2023-04-15T06:09:31;10.00;99.90
19829;DHT22;10075;50.924;4.396;2023-04-15T06:11:58;10.10;99.90
19829;DHT22;10075;50.924;4.396;2023-04-15T06:14:26;10.20;99.90
19829;DHT22;10075;50.924;4.396;2023-04-15T06:16:53;10.20;99.90
19829;DHT22;10075;50.924;4.396;2023-04-15T06:19:21;10.50;99.90
19829;DHT22;10075;50.924;4.396;2023-04-15T06:21:49;10.70;99.90
19829;DHT22;10075;50.924;4.396;2023-04-15T06:24:16;10.80;99.90
19829;DHT22;10075;50.924;4.396;2023-04-15T06:26:43;10.80;99.90
19829;DHT22;10075;50.924;4.396;2023-04-15T06:29:10;10.50;99.90
19829;DHT22;10075;50.924;4.396;2023-04-15T06:31:37;10.40;99.90
19829;DHT22;10075;50.924;4.396;2023-04-15T06:34:04;10.60;99.90
19829;DHT22;10075;50.924;4.396;2023-04-15T06:36:32;10.90;99.90
19829;DHT22;10075;50.924;4.396;2023-04-15T06:38:59;11.00;99.90
19829;DHT22;10075;50.924;4.396;2023-04-15T06:41:27;11.10;99.90
19829;DHT22;10075;50.924;4.396;2023-04-15T06:43:54;11.20;99.90
19829;DHT22;10075;50.924;4.396;2023-04-15T06:46:21;11.30;99.90
19829;DHT22;10075;50.924;4.396;2023-04-15T06:48:48;11.50;99.90
19829;DHT22;10075;50.924;4.396;2023-04-15T06:51:17;11.60;99.90
19829;DHT22;10075;50.924;4.396;2023-04-15T06:53:45;11.40;99.90
19829;DHT22;10075;50.924;4.396;2023-04-15T06:56:12;11.20;99.90
19829;DHT22;10075;50.924;4.396;2023-04-15T06:58:39;11.00;99.90
19829;DHT22;10075;50.924;4.396;2023-04-15T07:01:06;11.10;99.90
19829;DHT22;10075;50.924;4.396;2023-04-15T07:03:33;11.00;99.90
19829;DHT22;10075;50.924;4.396;2023-04-15T07:06:00;11.10;99.90
19829;DHT22;10075;50.924;4.396;2023-04-15T07:08:30;11.10;99.90
19829;DHT22;10075;50.924;4.396;2023-04-15T07:10:59;11.10;99.90
19829;DHT22;10075;50.924;4.396;2023-04-15T07:13:27;11.20;99.90
19829;DHT22;10075;50.924;4.396;2023-04-15T07:15:54;11.40;99.90
19829;DHT22;10075;50.924;4.396;2023-04-15T07:18:21;11.40;99.90
19829;DHT22;10075;50.924;4.396;2023-04-15T07:20:48;11.40;99.90
19829;DHT22;10075;50.924;4.396;2023-04-15T07:23:15;11.50;99.90
19829;DHT22;10075;50.924;4.396;2023-04-15T07:25:42;11.50;99.90
19829;DHT22;10075;50.924;4.396;2023-04-15T07:28:11;11.40;99.90
19829;DHT22;10075;50.924;4.396;2023-04-15T07:30:38;11.10;99.90
19829;DHT22;10075;50.924;4.396;2023-04-15T07:33:06;11.10;99.90
19829;DHT22;10075;50.924;4.396;2023-04-15T07:35:33;11.10;99.90
19829;DHT22;10075;50.924;4.396;2023-04-15T07:38:00;11.10;99.90
19829;DHT22;10075;50.924;4.396;2023-04-15T07:40:27;10.90;99.90
19829;DHT22;10075;50.924;4.396;2023-04-15T07:42:55;11.00;99.90
19829;DHT22;10075;50.924;4.396;2023-04-15T07:45:24;10.90;99.90
19829;DHT22;10075;50.924;4.396;2023-04-15T07:47:51;10.90;99.90
19829;DHT22;10075;50.924;4.396;2023-04-15T07:50:20;10.80;99.90
19829;DHT22;10075;50.924;4.396;2023-04-15T07:52:48;10.60;99.90
19829;DHT22;10075;50.924;4.396;2023-04-15T07:55:16;10.60;99.90
19829;DHT22;10075;50.924;4.396;2023-04-15T07:57:44;10.60;99.90
19829;DHT22;10075;50.924;4.396;2023-04-15T08:00:14;10.70;99.90
19829;DHT22;10075;50.924;4.396;2023-04-15T08:02:42;10.80;99.90
19829;DHT22;10075;50.924;4.396;2023-04-15T08:05:12;11.10;99.90
19829;DHT22;10075;50.924;4.396;2023-04-15T08:07:39;11.30;99.90
19829;DHT22;10075;50.924;4.396;2023-04-15T08:10:07;11.50;99.90
19829;DHT22;10075;50.924;4.396;2023-04-15T08:12:34;11.60;99.90
19829;DHT22;10075;50.924;4.396;2023-04-15T08:15:01;11.80;99.90
19829;DHT22;10075;50.924;4.396;2023-04-15T08:17:28;11.90;99.90
19829;DHT22;10075;50.924;4.396;2023-04-15T08:19:57;12.20;99.90
19829;DHT22;10075;50.924;4.396;2023-04-15T08:22:24;12.50;99.90
19829;DHT22;10075;50.924;4.396;2023-04-15T08:24:52;12.70;99.90
19829;DHT22;10075;50.924;4.396;2023-04-15T08:27:19;12.90;99.90
19829;DHT22;10075;50.924;4.396;2023-04-15T08:29:46;13.10;99.90
19829;DHT22;10075;50.924;4.396;2023-04-15T08:32:13;12.80;99.90
19829;DHT22;10075;50.924;4.396;2023-04-15T08:34:40;12.60;99.90
19829;DHT22;10075;50.924;4.396;2023-04-15T08:37:08;12.60;99.90
19829;DHT22;10075;50.924;4.396;2023-04-15T08:39:35;12.70;99.90
19829;DHT22;10075;50.924;4.396;2023-04-15T08:42:03;12.70;99.90
19829;DHT22;10075;50.924;4.396;2023-04-15T08:44:33;12.90;99.90
19829;DHT22;10075;50.924;4.396;2023-04-15T08:47:01;13.00;99.90
19829;DHT22;10075;50.924;4.396;2023-04-15T08:49:29;13.20;99.90
19829;DHT22;10075;50.924;4.396;2023-04-15T08:51:58;13.50;99.90
19829;DHT22;10075;50.924;4.396;2023-04-15T08:54:27;13.60;99.90
19829;DHT22;10075;50.924;4.396;2023-04-15T08:56:56;13.60;99.90
19829;DHT22;10075;50.924;4.396;2023-04-15T08:59:24;13.90;99.90
19829;DHT22;10075;50.924;4.396;2023-04-15T09:01:51;13.80;99.90
19829;DHT22;10075;50.924;4.396;2023-04-15T09:04:18;14.10;99.90
19829;DHT22;10075;50.924;4.396;2023-04-15T09:06:46;14.40;99.90
19829;DHT22;10075;50.924;4.396;2023-04-15T09:09:13;14.50;99.90
19829;DHT22;10075;50.924;4.396;2023-04-15T09:11:41;14.70;99.90
19829;DHT22;10075;50.924;4.396;2023-04-15T09:14:08;14.80;99.90
19829;DHT22;10075;50.924;4.396;2023-04-15T09:16:56;14.80;99.90
19829;DHT22;10075;50.924;4.396;2023-04-15T09:19:24;15.00;99.90
19829;DHT22;10075;50.924;4.396;2023-04-15T09:21:53;15.20;99.90
19829;DHT22;10075;50.924;4.396;2023-04-15T09:24:21;15.40;99.90
19829;DHT22;10075;50.924;4.396;2023-04-15T09:26:52;15.30;99.90
19829;DHT22;10075;50.924;4.396;2023-04-15T09:29:19;15.30;99.90
19829;DHT22;10075;50.924;4.396;2023-04-15T09:31:49;15.40;99.90
19829;DHT22;10075;50.924;4.396;2023-04-15T09:34:17;15.50;99.90
19829;DHT22;10075;50.924;4.396;2023-04-15T09:36:56;15.70;99.90
19829;DHT22;10075;50.924;4.396;2023-04-15T09:39:23;15.50;99.90
19829;DHT22;10075;50.924;4.396;2023-04-15T09:42:07;15.40;99.90
19829;DHT22;10075;50.924;4.396;2023-04-15T09:44:34;15.40;99.90
19829;DHT22;10075;50.924;4.396;2023-04-15T09:47:01;15.50;99.90
19829;DHT22;10075;50.924;4.396;2023-04-15T09:49:28;15.60;99.90
19829;DHT22;10075;50.924;4.396;2023-04-15T09:51:58;15.60;99.90
19829;DHT22;10075;50.924;4.396;2023-04-15T09:54:35;15.70;99.90
19829;DHT22;10075;50.924;4.396;2023-04-15T09:57:08;15.80;99.90
19829;DHT22;10075;50.924;4.396;2023-04-15T09:59:36;15.60;99.90
19829;DHT22;10075;50.924;4.396;2023-04-15T10:02:04;15.20;99.90
19829;DHT22;10075;50.924;4.396;2023-04-15T10:04:35;15.20;99.90
19829;DHT22;10075;50.924;4.396;2023-04-15T10:07:05;14.90;99.90
19829;DHT22;10075;50.924;4.396;2023-04-15T10:09:35;14.70;99.90
19829;DHT22;10075;50.924;4.396;2023-04-15T10:12:02;14.70;99.90
19829;DHT22;10075;50.924;4.396;2023-04-15T10:14:33;14.80;99.90
19829;DHT22;10075;50.924;4.396;2023-04-15T10:17:04;14.90;99.90
19829;DHT22;10075;50.924;4.396;2023-04-15T10:19:32;14.80;99.90
19829;DHT22;10075;50.924;4.396;2023-04-15T10:21:59;15.00;99.90
19829;DHT22;10075;50.924;4.396;2023-04-15T10:24:27;15.00;99.90
19829;DHT22;10075;50.924;4.396;2023-04-15T10:26:54;15.00;99.90
19829;DHT22;10075;50.924;4.396;2023-04-15T10:29:23;15.20;99.90
19829;DHT22;10075;50.924;4.396;2023-04-15T10:31:53;15.30;99.90
19829;DHT22;10075;50.924;4.396;2023-04-15T10:34:21;15.50;99.90
19829;DHT22;10075;50.924;4.396;2023-04-15T10:36:49;15.60;99.90
19829;DHT22;10075;50.924;4.396;2023-04-15T10:39:42;15.50;99.30
19829;DHT22;10075;50.924;4.396;2023-04-15T10:42:10;15.70;98.90
19829;DHT22;10075;50.924;4.396;2023-04-15T10:44:38;15.70;99.10
19829;DHT22;10075;50.924;4.396;2023-04-15T10:47:14;15.80;98.40
19829;DHT22;10075;50.924;4.396;2023-04-15T10:49:44;15.90;96.60
19829;DHT22;10075;50.924;4.396;2023-04-15T10:52:12;15.60;95.80
19829;DHT22;10075;50.924;4.396;2023-04-15T10:54:40;15.20;96.50
19829;DHT22;10075;50.924;4.396;2023-04-15T10:57:08;15.10;96.80
19829;DHT22;10075;50.924;4.396;2023-04-15T11:00:10;15.20;97.40
19829;DHT22;10075;50.924;4.396;2023-04-15T11:02:44;15.40;97.40
19829;DHT22;10075;50.924;4.396;2023-04-15T11:05:12;15.50;96.30
19829;DHT22;10075;50.924;4.396;2023-04-15T11:07:47;15.50;96.50
19829;DHT22;10075;50.924;4.396;2023-04-15T11:13:27;15.40;96.30
19829;DHT22;10075;50.924;4.396;2023-04-15T11:15:58;15.50;97.20
19829;DHT22;10075;50.924;4.396;2023-04-15T11:18:32;15.50;97.80
19829;DHT22;10075;50.924;4.396;2023-04-15T11:21:01;15.80;95.70
19829;DHT22;10075;50.924;4.396;2023-04-15T11:23:31;15.80;95.50
19829;DHT22;10075;50.924;4.396;2023-04-15T11:25:59;15.90;95.00
19829;DHT22;10075;50.924;4.396;2023-04-15T11:28:28;15.90;93.70
19829;DHT22;10075;50.924;4.396;2023-04-15T11:30:56;15.60;88.10
19829;DHT22;10075;50.924;4.396;2023-04-15T11:33:23;15.40;87.40
19829;DHT22;10075;50.924;4.396;2023-04-15T11:35:53;15.40;90.00
19829;DHT22;10075;50.924;4.396;2023-04-15T11:38:20;15.60;91.50
19829;DHT22;10075;50.924;4.396;2023-04-15T11:40:49;15.70;93.30
19829;DHT22;10075;50.924;4.396;2023-04-15T11:43:17;15.60;93.40
19829;DHT22;10075;50.924;4.396;2023-04-15T11:45:50;15.60;92.70
19829;DHT22;10075;50.924;4.396;2023-04-15T11:48:18;15.40;90.00
19829;DHT22;10075;50.924;4.396;2023-04-15T11:50:45;15.10;91.20
19829;DHT22;10075;50.924;4.396;2023-04-15T11:53:14;15.00;91.10
19829;DHT22;10075;50.924;4.396;2023-04-15T11:55:42;14.90;92.10
19829;DHT22;10075;50.924;4.396;2023-04-15T11:58:12;14.90;92.40
19829;DHT22;10075;50.924;4.396;2023-04-15T12:00:44;15.00;90.40
19829;DHT22;10075;50.924;4.396;2023-04-15T12:03:23;15.20;90.60
19829;DHT22;10075;50.924;4.396;2023-04-15T12:06:10;15.50;91.20
19829;DHT22;10075;50.924;4.396;2023-04-15T12:09:00;15.70;91.40
19829;DHT22;10075;50.924;4.396;2023-04-15T12:11:30;15.80;92.30
19829;DHT22;10075;50.924;4.396;2023-04-15T12:14:05;16.00;93.00
19829;DHT22;10075;50.924;4.396;2023-04-15T12:16:33;15.80;92.10
19829;DHT22;10075;50.924;4.396;2023-04-15T12:19:04;15.60;92.30
19829;DHT22;10075;50.924;4.396;2023-04-15T12:21:37;15.80;92.90
19829;DHT22;10075;50.924;4.396;2023-04-15T12:24:07;16.00;90.10
19829;DHT22;10075;50.924;4.396;2023-04-15T12:26:37;15.70;88.50
19829;DHT22;10075;50.924;4.396;2023-04-15T12:29:05;15.70;84.40
19829;DHT22;10075;50.924;4.396;2023-04-15T12:31:33;15.70;87.40
19829;DHT22;10075;50.924;4.396;2023-04-15T12:34:02;15.70;89.00
19829;DHT22;10075;50.924;4.396;2023-04-15T12:36:30;15.80;90.00
19829;DHT22;10075;50.924;4.396;2023-04-15T12:39:01;16.10;89.30
19829;DHT22;10075;50.924;4.396;2023-04-15T12:41:31;16.30;87.20
19829;DHT22;10075;50.924;4.396;2023-04-15T12:43:58;16.40;86.70
19829;DHT22;10075;50.924;4.396;2023-04-15T12:46:25;16.50;88.20
19829;DHT22;10075;50.924;4.396;2023-04-15T12:48:53;16.50;86.30
19829;DHT22;10075;50.924;4.396;2023-04-15T12:51:20;16.10;91.30
19829;DHT22;10075;50.924;4.396;2023-04-15T12:53:47;15.80;91.40
19829;DHT22;10075;50.924;4.396;2023-04-15T12:56:14;15.50;91.20
19829;DHT22;10075;50.924;4.396;2023-04-15T12:58:43;15.60;88.70
19829;DHT22;10075;50.924;4.396;2023-04-15T13:01:10;15.80;88.80
19829;DHT22;10075;50.924;4.396;2023-04-15T13:03:37;15.70;90.20
19829;DHT22;10075;50.924;4.396;2023-04-15T13:06:04;15.70;90.70
19829;DHT22;10075;50.924;4.396;2023-04-15T13:08:31;15.90;90.70
19829;DHT22;10075;50.924;4.396;2023-04-15T13:10:59;16.10;91.20
19829;DHT22;10075;50.924;4.396;2023-04-15T13:13:26;16.20;92.50
19829;DHT22;10075;50.924;4.396;2023-04-15T13:15:54;16.10;91.20
19829;DHT22;10075;50.924;4.396;2023-04-15T13:18:21;15.90;91.80
19829;DHT22;10075;50.924;4.396;2023-04-15T13:20:49;15.80;92.80
19829;DHT22;10075;50.924;4.396;2023-04-15T13:23:16;16.00;92.50
19829;DHT22;10075;50.924;4.396;2023-04-15T13:25:43;16.30;92.40
19829;DHT22;10075;50.924;4.396;2023-04-15T13:28:11;16.30;91.20
19829;DHT22;10075;50.924;4.396;2023-04-15T13:30:38;16.20;92.50
19829;DHT22;10075;50.924;4.396;2023-04-15T13:33:07;16.00;92.10
19829;DHT22;10075;50.924;4.396;2023-04-15T13:35:34;16.00;92.20
19829;DHT22;10075;50.924;4.396;2023-04-15T13:38:01;16.20;92.00
19829;DHT22;10075;50.924;4.396;2023-04-15T13:40:28;16.00;91.80
19829;DHT22;10075;50.924;4.396;2023-04-15T13:42:55;16.00;92.80
19829;DHT22;10075;50.924;4.396;2023-04-15T13:45:22;16.10;92.80
19829;DHT22;10075;50.924;4.396;2023-04-15T13:47:49;16.20;91.70
19829;DHT22;10075;50.924;4.396;2023-04-15T13:50:17;16.10;91.70
19829;DHT22;10075;50.924;4.396;2023-04-15T13:52:44;16.20;91.60
19829;DHT22;10075;50.924;4.396;2023-04-15T13:55:11;16.20;91.40
19829;DHT22;10075;50.924;4.396;2023-04-15T13:57:38;16.20;92.30
19829;DHT22;10075;50.924;4.396;2023-04-15T14:00:06;16.00;93.40
19829;DHT22;10075;50.924;4.396;2023-04-15T14:02:34;16.30;93.00
19829;DHT22;10075;50.924;4.396;2023-04-15T14:05:01;16.80;92.40
19829;DHT22;10075;50.924;4.396;2023-04-15T14:07:29;16.60;91.60
19829;DHT22;10075;50.924;4.396;2023-04-15T14:09:56;16.20;92.50
19829;DHT22;10075;50.924;4.396;2023-04-15T14:12:23;16.00;93.50
19829;DHT22;10075;50.924;4.396;2023-04-15T14:14:50;15.90;94.60
19829;DHT22;10075;50.924;4.396;2023-04-15T14:17:18;15.80;93.10
19829;DHT22;10075;50.924;4.396;2023-04-15T14:19:45;15.70;93.30
19829;DHT22;10075;50.924;4.396;2023-04-15T14:22:12;15.50;92.40
19829;DHT22;10075;50.924;4.396;2023-04-15T14:24:41;15.50;91.80
19829;DHT22;10075;50.924;4.396;2023-04-15T14:27:08;15.60;92.70
19829;DHT22;10075;50.924;4.396;2023-04-15T14:29:37;15.80;92.90
19829;DHT22;10075;50.924;4.396;2023-04-15T14:32:04;16.00;92.10
19829;DHT22;10075;50.924;4.396;2023-04-15T14:34:31;16.20;91.90
19829;DHT22;10075;50.924;4.396;2023-04-15T14:36:58;16.80;91.50
19829;DHT22;10075;50.924;4.396;2023-04-15T14:39:25;17.10;91.50
19829;DHT22;10075;50.924;4.396;2023-04-15T14:41:54;17.80;90.80
19829;DHT22;10075;50.924;4.396;2023-04-15T14:44:21;19.00;90.10
19829;DHT22;10075;50.924;4.396;2023-04-15T14:46:48;19.60;88.40
19829;DHT22;10075;50.924;4.396;2023-04-15T14:49:16;19.80;88.40
19829;DHT22;10075;50.924;4.396;2023-04-15T14:51:44;20.80;87.20
19829;DHT22;10075;50.924;4.396;2023-04-15T14:54:11;20.40;84.00
19829;DHT22;10075;50.924;4.396;2023-04-15T14:56:38;19.10;87.70
19829;DHT22;10075;50.924;4.396;2023-04-15T14:59:06;18.20;91.10
19829;DHT22;10075;50.924;4.396;2023-04-15T15:01:33;17.90;91.90
19829;DHT22;10075;50.924;4.396;2023-04-15T15:04:00;17.20;91.30
19829;DHT22;10075;50.924;4.396;2023-04-15T15:06:27;17.50;91.40
19829;DHT22;10075;50.924;4.396;2023-04-15T15:08:54;18.40;90.20
19829;DHT22;10075;50.924;4.396;2023-04-15T15:11:21;18.70;89.70
19829;DHT22;10075;50.924;4.396;2023-04-15T15:13:48;18.40;89.80
19829;DHT22;10075;50.924;4.396;2023-04-15T15:16:17;18.00;91.30
19829;DHT22;10075;50.924;4.396;2023-04-15T15:18:44;17.50;92.60
19829;DHT22;10075;50.924;4.396;2023-04-15T15:21:13;16.50;93.70
19829;DHT22;10075;50.924;4.396;2023-04-15T15:23:40;15.90;95.10
19829;DHT22;10075;50.924;4.396;2023-04-15T15:26:07;16.80;94.00
19829;DHT22;10075;50.924;4.396;2023-04-15T15:28:34;18.20;91.90
19829;DHT22;10075;50.924;4.396;2023-04-15T15:31:01;17.90;92.50
19829;DHT22;10075;50.924;4.396;2023-04-15T15:33:31;18.00;92.30
19829;DHT22;10075;50.924;4.396;2023-04-15T15:35:58;18.00;92.10
19829;DHT22;10075;50.924;4.396;2023-04-15T15:38:25;19.00;93.20
19829;DHT22;10075;50.924;4.396;2023-04-15T15:40:53;18.40;96.80
19829;DHT22;10075;50.924;4.396;2023-04-15T15:43:20;18.10;98.10
19829;DHT22;10075;50.924;4.396;2023-04-15T15:45:47;18.40;98.00